Time;durP1;ratioP1;P1;durP2;ratioP2;P2;SDS_P1;SDS_P2;PMS_P1;PMS_P2;Temp;Humidity;BMP_temperature;BMP_pressure;BME280_temperature;BME280_humidity;BME280_pressure;Samples;Min_cycle;Max_cycle;Signal;HPM_P1;HPM_P2
2022/09/22 00:00:29;;;;;;;5.55;2.47;;;;;;;;;;5054354;28;20195;-62
2022/09/22 00:02:57;;;;;;;4.85;3.00;;;;;;;;;;5072431;28;20249;-62
2022/09/22 00:05:25;;;;;;;4.25;2.30;;;;;;;;;;5071597;28;20209;-63
2022/09/22 00:07:52;;;;;;;7.53;3.08;;;;;;;;;;5072302;28;20189;-62
2022/09/22 00:10:20;;;;;;;3.65;2.30;;;;;;;;;;5071903;28;20585;-62
2022/09/22 00:12:48;;;;;;;6.25;3.85;;;;;;;;;;5071857;28;20356;-62
2022/09/22 00:15:15;;;;;;;6.10;3.67;;;;;;;;;;5071878;28;20213;-62
2022/09/22 00:17:44;;;;;;;7.10;4.18;;;;;;;;;;5071255;28;20196;-63
2022/09/22 00:20:12;;;;;;;8.25;3.80;;;;;;;;;;5072262;28;20196;-62
2022/09/22 00:22:40;;;;;;;4.70;3.00;;;;;;;;;;5071730;28;20193;-63
2022/09/22 00:25:09;;;;;;;4.35;2.38;;;;;;;;;;5052279;28;20199;-62
2022/09/22 00:27:37;;;;;;;5.28;2.47;;;;;;;;;;5053924;28;20185;-62
2022/09/22 00:30:04;;;;;;;4.80;2.55;;;;;;;;;;5071217;28;20478;-62
2022/09/22 00:32:32;;;;;;;6.03;3.78;;;;;;;;;;5071628;28;20717;-62
2022/09/22 00:35:01;;;;;;;4.90;2.70;;;;;;;;;;5071453;28;20545;-63
2022/09/22 00:37:28;;;;;;;4.57;3.17;;;;;;;;;;5071812;28;20193;-62
2022/09/22 00:39:56;;;;;;;4.82;2.65;;;;;;;;;;5071252;28;20280;-62
2022/09/22 00:42:24;;;;;;;6.18;3.55;;;;;;;;;;5071844;28;20228;-62
2022/09/22 00:44:52;;;;;;;6.00;2.97;;;;;;;;;;5071147;28;20611;-62
2022/09/22 00:47:25;;;;;;;7.45;4.00;;;;;;;;;;5071246;28;20217;-62
2022/09/22 00:49:54;;;;;;;12.73;4.40;;;;;;;;;;5071524;28;20533;-62
2022/09/22 00:52:26;;;;;;;6.20;2.80;;;;;;;;;;5071751;28;20204;-62
2022/09/22 00:54:55;;;;;;;6.38;2.40;;;;;;;;;;5071337;28;20220;-62
2022/09/22 00:57:24;;;;;;;7.50;3.05;;;;;;;;;;5071536;28;20638;-62
2022/09/22 00:59:53;;;;;;;3.20;2.33;;;;;;;;;;5070742;28;20182;-62
2022/09/22 01:02:21;;;;;;;4.95;3.40;;;;;;;;;;5071652;28;20648;-62
2022/09/22 01:04:50;;;;;;;4.75;2.90;;;;;;;;;;5074893;28;20240;-62
2022/09/22 01:07:18;;;;;;;3.53;2.25;;;;;;;;;;5075480;28;20244;-62
2022/09/22 01:09:46;;;;;;;3.70;2.40;;;;;;;;;;5074621;28;20212;-62
2022/09/22 01:12:14;;;;;;;5.85;3.17;;;;;;;;;;5075255;28;20189;-62
2022/09/22 01:14:54;;;;;;;6.63;3.45;;;;;;;;;;5074808;28;20186;-62
2022/09/22 01:17:26;;;;;;;4.03;2.90;;;;;;;;;;5075023;28;20204;-62
2022/09/22 01:20:06;;;;;;;4.43;2.80;;;;;;;;;;5074617;28;20235;-62
2022/09/22 01:22:45;;;;;;;4.43;2.20;;;;;;;;;;5074720;28;20181;-62
2022/09/22 01:25:28;;;;;;;5.63;2.50;;;;;;;;;;5075027;28;20280;-62
2022/09/22 01:28:10;;;;;;;4.30;2.78;;;;;;;;;;5072828;28;20225;-62
2022/09/22 01:30:43;;;;;;;5.45;3.05;;;;;;;;;;5073045;28;20194;-62
2022/09/22 01:33:21;;;;;;;3.22;2.67;;;;;;;;;;5074406;28;20197;-63
2022/09/22 01:35:52;;;;;;;3.72;2.42;;;;;;;;;;5074643;28;20223;-66
2022/09/22 01:38:24;;;;;;;3.58;2.35;;;;;;;;;;5074562;28;20190;-62
2022/09/22 01:40:54;;;;;;;4.35;2.70;;;;;;;;;;5074676;28;20656;-63
2022/09/22 01:43:25;;;;;;;4.55;2.53;;;;;;;;;;5074372;28;20227;-62
2022/09/22 01:45:54;;;;;;;3.33;2.30;;;;;;;;;;5073654;28;20240;-62
2022/09/22 01:48:24;;;;;;;3.17;2.67;;;;;;;;;;5074524;28;20217;-62
2022/09/22 01:50:54;;;;;;;5.00;2.50;;;;;;;;;;5074110;28;20186;-62
2022/09/22 01:53:24;;;;;;;3.78;1.92;;;;;;;;;;5074506;28;20204;-63
2022/09/22 01:55:54;;;;;;;3.30;2.50;;;;;;;;;;5073857;28;20300;-62
2022/09/22 01:58:25;;;;;;;3.30;2.60;;;;;;;;;;5074184;28;20193;-62
2022/09/22 02:00:56;;;;;;;3.00;1.95;;;;;;;;;;5074067;28;20590;-62
2022/09/22 02:03:25;;;;;;;4.88;2.53;;;;;;;;;;5074121;28;20208;-62
2022/09/22 02:05:55;;;;;;;3.03;2.35;;;;;;;;;;5073781;28;20190;-63
2022/09/22 02:08:25;;;;;;;4.47;2.78;;;;;;;;;;5073854;28;20281;-62
2022/09/22 02:10:54;;;;;;;4.22;2.85;;;;;;;;;;5074199;28;20280;-62
2022/09/22 02:13:21;;;;;;;2.67;2.05;;;;;;;;;;5073573;28;20229;-62
2022/09/22 02:16:01;;;;;;;4.43;3.00;;;;;;;;;;5073139;28;20221;-62
2022/09/22 02:18:32;;;;;;;4.05;2.50;;;;;;;;;;5073469;28;20193;-62
2022/09/22 02:21:00;;;;;;;5.30;3.03;;;;;;;;;;5074074;28;20194;-62
2022/09/22 02:23:27;;;;;;;6.75;3.42;;;;;;;;;;5073468;28;20223;-66
2022/09/22 02:25:55;;;;;;;6.72;3.85;;;;;;;;;;5073727;28;20189;-62
2022/09/22 02:28:24;;;;;;;8.20;3.97;;;;;;;;;;5073900;28;20192;-62
2022/09/22 02:30:52;;;;;;;7.80;4.10;;;;;;;;;;5070295;28;20565;-63
2022/09/22 02:33:20;;;;;;;6.43;4.10;;;;;;;;;;5073750;28;20185;-62
2022/09/22 02:35:53;;;;;;;8.18;5.00;;;;;;;;;;5073050;28;20213;-62
2022/09/22 02:38:22;;;;;;;5.72;3.22;;;;;;;;;;5073776;28;20229;-62
2022/09/22 02:40:53;;;;;;;4.75;3.53;;;;;;;;;;5073535;28;20194;-62
2022/09/22 02:43:25;;;;;;;6.68;3.40;;;;;;;;;;5073507;28;20194;-62
2022/09/22 02:46:00;;;;;;;6.05;3.70;;;;;;;;;;5070988;28;20222;-62
2022/09/22 02:48:29;;;;;;;8.30;3.35;;;;;;;;;;5073229;28;20721;-62
2022/09/22 02:50:58;;;;;;;11.52;3.88;;;;;;;;;;5073030;28;20197;-62
2022/09/22 02:53:25;;;;;;;9.00;3.78;;;;;;;;;;5072806;28;20194;-63
2022/09/22 02:55:53;;;;;;;5.53;3.22;;;;;;;;;;5073174;28;20340;-62
2022/09/22 02:58:20;;;;;;;4.97;3.03;;;;;;;;;;5072786;28;20201;-62
2022/09/22 03:00:48;;;;;;;9.52;3.63;;;;;;;;;;5073037;28;20202;-63
2022/09/22 03:03:15;;;;;;;5.05;3.45;;;;;;;;;;5073147;28;20186;-62
2022/09/22 03:05:42;;;;;;;7.20;3.45;;;;;;;;;;5072735;28;20186;-63
2022/09/22 03:08:11;;;;;;;5.03;3.45;;;;;;;;;;5072990;28;20686;-63
2022/09/22 03:10:39;;;;;;;6.65;3.65;;;;;;;;;;5072656;28;20186;-62
2022/09/22 03:13:06;;;;;;;4.10;2.60;;;;;;;;;;5073023;28;20201;-62
2022/09/22 03:15:34;;;;;;;6.50;3.78;;;;;;;;;;5072430;28;20694;-62
2022/09/22 03:18:01;;;;;;;5.55;3.60;;;;;;;;;;5073109;28;20657;-62
2022/09/22 03:20:29;;;;;;;5.35;3.33;;;;;;;;;;5072367;28;20185;-62
2022/09/22 03:22:56;;;;;;;6.63;5.00;;;;;;;;;;5072639;28;20189;-62
2022/09/22 03:25:25;;;;;;;5.45;4.93;;;;;;;;;;5072479;28;20267;-62
2022/09/22 03:27:52;;;;;;;5.70;4.90;;;;;;;;;;5071772;28;20276;-63
2022/09/22 03:30:20;;;;;;;7.25;4.32;;;;;;;;;;5072219;28;20268;-63
2022/09/22 03:32:47;;;;;;;6.13;4.53;;;;;;;;;;5072744;28;20212;-62
2022/09/22 03:35:15;;;;;;;6.68;4.15;;;;;;;;;;5071887;28;20194;-62
2022/09/22 03:37:42;;;;;;;4.22;3.03;;;;;;;;;;5072529;28;20229;-63
2022/09/22 03:40:10;;;;;;;3.75;2.60;;;;;;;;;;5072310;28;20217;-62
2022/09/22 03:42:39;;;;;;;5.00;3.20;;;;;;;;;;5072017;28;20194;-62
2022/09/22 03:45:06;;;;;;;3.60;2.75;;;;;;;;;;5072629;28;20658;-62
2022/09/22 03:47:34;;;;;;;3.35;2.65;;;;;;;;;;5072219;28;20764;-67
2022/09/22 03:50:01;;;;;;;4.55;3.40;;;;;;;;;;5072388;28;20190;-62
2022/09/22 03:52:29;;;;;;;6.43;3.38;;;;;;;;;;5071961;28;20239;-62
2022/09/22 03:54:57;;;;;;;7.63;4.25;;;;;;;;;;5072339;28;20239;-62
2022/09/22 03:57:24;;;;;;;6.15;4.32;;;;;;;;;;5071780;28;20213;-63
2022/09/22 03:59:53;;;;;;;7.35;3.92;;;;;;;;;;5072135;28;20213;-63
2022/09/22 04:02:21;;;;;;;7.72;4.68;;;;;;;;;;5072173;28;20401;-62
2022/09/22 04:04:48;;;;;;;6.10;4.45;;;;;;;;;;5072324;28;20198;-62
2022/09/22 04:07:16;;;;;;;6.75;4.30;;;;;;;;;;5072188;28;20192;-62
2022/09/22 04:09:43;;;;;;;6.32;3.17;;;;;;;;;;5072443;28;20186;-62
2022/09/22 04:12:11;;;;;;;7.95;4.05;;;;;;;;;;5072138;28;20197;-62
2022/09/22 04:14:38;;;;;;;4.60;3.45;;;;;;;;;;5072358;28;21390;-62
2022/09/22 04:17:07;;;;;;;4.93;3.83;;;;;;;;;;5072795;28;20217;-62
2022/09/22 04:19:35;;;;;;;6.90;4.63;;;;;;;;;;5071895;28;20247;-62
2022/09/22 04:22:03;;;;;;;6.22;4.20;;;;;;;;;;5072347;28;20276;-62
2022/09/22 04:24:30;;;;;;;10.15;6.25;;;;;;;;;;5071940;28;20190;-62
2022/09/22 04:26:58;;;;;;;7.18;4.00;;;;;;;;;;5072301;28;20242;-62
2022/09/22 04:29:25;;;;;;;10.00;4.75;;;;;;;;;;5072437;28;20201;-62
2022/09/22 04:31:53;;;;;;;10.27;4.07;;;;;;;;;;5070409;28;20601;-62
2022/09/22 04:34:21;;;;;;;4.05;3.05;;;;;;;;;;5072049;28;20235;-62
2022/09/22 04:36:49;;;;;;;6.22;3.63;;;;;;;;;;5072241;28;20253;-62
2022/09/22 04:39:16;;;;;;;8.13;4.20;;;;;;;;;;5074850;28;20193;-63
2022/09/22 04:41:44;;;;;;;9.48;4.43;;;;;;;;;;5076207;28;20201;-62
2022/09/22 04:44:11;;;;;;;6.95;4.50;;;;;;;;;;5075763;28;20679;-62
2022/09/22 04:46:38;;;;;;;7.55;4.30;;;;;;;;;;5076139;28;20189;-62
2022/09/22 04:49:06;;;;;;;7.40;3.67;;;;;;;;;;5075852;28;20218;-62
2022/09/22 04:51:35;;;;;;;8.15;4.50;;;;;;;;;;5075936;28;20190;-62
2022/09/22 04:54:02;;;;;;;7.72;4.70;;;;;;;;;;5075198;28;20193;-62
2022/09/22 04:56:30;;;;;;;8.35;5.30;;;;;;;;;;5075707;28;20221;-62
2022/09/22 04:58:57;;;;;;;10.35;5.60;;;;;;;;;;5075574;28;20616;-63
2022/09/22 05:01:26;;;;;;;6.75;4.53;;;;;;;;;;5076006;28;20190;-62
2022/09/22 05:03:54;;;;;;;6.40;4.25;;;;;;;;;;5074914;28;20209;-62
2022/09/22 05:06:21;;;;;;;7.07;4.03;;;;;;;;;;5075803;28;20216;-62
2022/09/22 05:08:50;;;;;;;7.95;4.03;;;;;;;;;;5075207;28;20243;-62
2022/09/22 05:11:20;;;;;;;9.35;4.97;;;;;;;;;;5075024;28;20185;-62
2022/09/22 05:13:49;;;;;;;8.73;4.30;;;;;;;;;;5075609;28;20217;-62
2022/09/22 05:16:17;;;;;;;9.60;3.88;;;;;;;;;;5074955;28;20300;-62
2022/09/22 05:18:44;;;;;;;9.95;4.28;;;;;;;;;;5074732;28;20197;-63
2022/09/22 05:21:11;;;;;;;21.98;5.22;;;;;;;;;;5074971;28;20652;-62
2022/09/22 05:23:39;;;;;;;11.20;4.57;;;;;;;;;;5073421;28;20181;-62
2022/09/22 05:26:08;;;;;;;15.57;4.68;;;;;;;;;;5074984;28;20251;-65
2022/09/22 05:28:35;;;;;;;13.68;5.07;;;;;;;;;;5075225;28;20190;-62
2022/09/22 05:31:03;;;;;;;11.48;4.95;;;;;;;;;;5075555;28;20189;-62
2022/09/22 05:33:31;;;;;;;9.23;4.57;;;;;;;;;;5073679;28;20185;-62
2022/09/22 05:35:58;;;;;;;7.05;3.80;;;;;;;;;;5071677;28;20198;-62
2022/09/22 05:38:26;;;;;;;12.82;4.53;;;;;;;;;;5071636;28;20247;-62
2022/09/22 05:40:53;;;;;;;7.70;4.65;;;;;;;;;;5071798;28;20190;-63
2022/09/22 05:43:22;;;;;;;10.48;4.80;;;;;;;;;;5071832;28;20208;-62
2022/09/22 05:45:49;;;;;;;20.42;4.82;;;;;;;;;;5073038;28;20185;-62
2022/09/22 05:48:17;;;;;;;7.15;4.15;;;;;;;;;;5071611;28;20218;-63
2022/09/22 05:50:44;;;;;;;8.02;4.35;;;;;;;;;;5067642;28;20682;-63
2022/09/22 05:53:12;;;;;;;13.95;5.20;;;;;;;;;;5072438;28;20198;-63
2022/09/22 05:55:40;;;;;;;25.25;5.25;;;;;;;;;;5068803;28;20188;-62
2022/09/22 05:58:10;;;;;;;24.45;5.60;;;;;;;;;;5066767;28;20216;-63
2022/09/22 06:00:40;;;;;;;13.18;4.95;;;;;;;;;;5058952;28;20351;-64
2022/09/22 06:03:07;;;;;;;20.70;4.90;;;;;;;;;;5064572;28;20197;-62
2022/09/22 06:05:35;;;;;;;6.00;3.70;;;;;;;;;;5071623;28;20197;-63
2022/09/22 06:08:05;;;;;;;4.75;3.30;;;;;;;;;;5071024;28;20727;-63
2022/09/22 06:10:33;;;;;;;9.63;4.20;;;;;;;;;;5072257;28;21514;-63
2022/09/22 06:13:00;;;;;;;9.48;3.90;;;;;;;;;;5071929;28;20272;-62
2022/09/22 06:15:28;;;;;;;12.00;4.60;;;;;;;;;;5072189;28;20258;-62
2022/09/22 06:17:57;;;;;;;12.40;4.35;;;;;;;;;;5072227;28;20224;-63
2022/09/22 06:20:25;;;;;;;8.27;3.88;;;;;;;;;;5072389;28;20602;-63
2022/09/22 06:22:53;;;;;;;10.48;4.72;;;;;;;;;;5072216;28;20197;-63
2022/09/22 06:25:22;;;;;;;14.32;5.72;;;;;;;;;;5071872;28;20228;-62
2022/09/22 06:27:58;;;;;;;11.80;6.97;;;;;;;;;;5071585;28;20194;-62
2022/09/22 06:30:26;;;;;;;12.15;6.05;;;;;;;;;;5071146;28;20189;-63
2022/09/22 06:32:55;;;;;;;7.22;5.47;;;;;;;;;;5072169;28;20255;-62
2022/09/22 06:35:24;;;;;;;11.32;5.47;;;;;;;;;;5071116;28;20190;-62
2022/09/22 06:37:56;;;;;;;7.70;5.88;;;;;;;;;;5069816;28;20575;-63
2022/09/22 06:40:24;;;;;;;13.05;5.68;;;;;;;;;;5072247;28;20621;-64
2022/09/22 06:42:57;;;;;;;7.38;4.18;;;;;;;;;;5071057;28;20185;-62
2022/09/22 06:45:25;;;;;;;6.63;4.57;;;;;;;;;;5071453;28;20652;-62
2022/09/22 06:47:53;;;;;;;11.15;5.38;;;;;;;;;;5070727;28;20232;-62
2022/09/22 06:50:20;;;;;;;6.82;4.35;;;;;;;;;;5071921;28;20530;-63
2022/09/22 06:52:50;;;;;;;8.32;3.97;;;;;;;;;;5071804;28;20192;-64
2022/09/22 06:55:19;;;;;;;4.40;3.22;;;;;;;;;;5071079;28;20188;-63
2022/09/22 06:57:46;;;;;;;5.65;3.60;;;;;;;;;;5071229;28;20263;-63
2022/09/22 07:00:17;;;;;;;7.45;3.35;;;;;;;;;;5069323;28;20659;-64
2022/09/22 07:02:44;;;;;;;3.65;2.70;;;;;;;;;;5068498;28;20185;-63
2022/09/22 07:05:17;;;;;;;5.45;2.70;;;;;;;;;;5070882;28;20206;-63
2022/09/22 07:07:44;;;;;;;5.78;2.95;;;;;;;;;;5070398;28;20632;-63
2022/09/22 07:10:13;;;;;;;3.50;2.58;;;;;;;;;;5071206;28;20318;-63
2022/09/22 07:12:40;;;;;;;9.13;3.08;;;;;;;;;;5070862;28;20251;-63
2022/09/22 07:15:08;;;;;;;5.75;2.35;;;;;;;;;;5069854;28;20197;-63
2022/09/22 07:17:35;;;;;;;4.70;3.00;;;;;;;;;;5071278;28;20217;-63
2022/09/22 07:20:04;;;;;;;3.30;2.40;;;;;;;;;;5070585;28;20201;-64
2022/09/22 07:22:32;;;;;;;3.85;2.95;;;;;;;;;;5069021;28;20607;-63
2022/09/22 07:25:01;;;;;;;5.82;3.90;;;;;;;;;;5069015;28;20310;-64
2022/09/22 07:27:29;;;;;;;3.35;2.90;;;;;;;;;;5064445;28;20182;-66
2022/09/22 07:29:57;;;;;;;4.93;2.83;;;;;;;;;;5057638;28;20277;-66
2022/09/22 07:32:26;;;;;;;3.65;2.60;;;;;;;;;;5065401;28;20606;-63
2022/09/22 07:34:55;;;;;;;4.10;3.33;;;;;;;;;;5067603;28;20193;-64
2022/09/22 07:37:23;;;;;;;5.45;3.47;;;;;;;;;;5069518;28;20240;-64
2022/09/22 07:39:50;;;;;;;7.15;3.35;;;;;;;;;;5069979;28;20213;-63
2022/09/22 07:42:18;;;;;;;4.18;2.63;;;;;;;;;;5070349;28;20193;-63
2022/09/22 07:50:18;;;;;;;4.75;2.70;;;;;;;;;;5067813;28;20181;-63
2022/09/22 07:52:51;;;;;;;4.40;3.35;;;;;;;;;;5070187;28;20226;-64
2022/09/22 07:55:21;;;;;;;4.15;3.30;;;;;;;;;;5068070;28;20189;-63
2022/09/22 07:57:54;;;;;;;4.90;3.88;;;;;;;;;;5070177;28;20210;-64
2022/09/22 08:00:23;;;;;;;5.10;2.90;;;;;;;;;;5071322;28;20301;-64
2022/09/22 08:02:53;;;;;;;7.27;3.23;;;;;;;;;;5072484;28;20432;-64
2022/09/22 08:05:20;;;;;;;3.60;3.13;;;;;;;;;;5072563;28;20435;-64
2022/09/22 08:07:48;;;;;;;3.20;2.60;;;;;;;;;;5072308;28;20440;-65
2022/09/22 08:10:15;;;;;;;3.87;2.37;;;;;;;;;;5072722;28;20443;-65
2022/09/22 08:12:43;;;;;;;4.63;2.60;;;;;;;;;;5072167;28;20445;-64
2022/09/22 08:15:12;;;;;;;3.00;1.90;;;;;;;;;;5072713;28;20531;-65
2022/09/22 08:17:40;;;;;;;2.50;1.33;;;;;;;;;;5073000;28;20472;-65
2022/09/22 08:20:08;;;;;;;2.40;1.40;;;;;;;;;;5072945;28;20494;-65
2022/09/22 08:22:35;;;;;;;3.37;1.50;;;13.90;49.60;;;;;;5073138;28;20480;-63
2022/09/22 08:25:03;;;;;;;2.40;1.37;;;37.10;27.40;;;;;;5072929;28;20535;-63
2022/09/22 08:27:30;;;;;;;3.40;2.37;;;;;;;;;;5072412;28;20471;-63
2022/09/22 08:29:57;;;;;;;2.57;1.47;;;;;;;;;;5072465;28;20839;-63
2022/09/22 08:32:25;;;;;;;3.90;1.67;;;;;;;;;;5072678;28;20472;-63
2022/09/22 08:34:56;;;;;;;2.50;1.70;;;;;;;;;;5072548;28;20458;-64
2022/09/22 08:37:26;;;;;;;2.70;1.67;;;;;;;;;;5072862;28;20485;-63
2022/09/22 08:39:53;;;;;;;4.73;4.23;;;37.80;26.30;;;;;;5072681;28;20443;-65
2022/09/22 08:42:22;;;;;;;3.00;1.73;;;42.80;22.20;;;;;;5072729;28;20522;-64
2022/09/22 08:44:58;;;;;;;2.10;1.20;;;43.20;21.80;;;;;;5072696;28;20841;-64
2022/09/22 08:53:15;;;;;;;2.30;1.40;;;44.80;19.20;;;;;;5072750;28;20877;-64
2022/09/22 08:55:47;;;;;;;2.53;1.40;;;45.30;19.20;;;;;;5072299;28;20446;-63
2022/09/22 08:58:30;;;;;;;3.70;1.80;;;45.70;18.50;;;;;;5072714;28;20769;-64
2022/09/22 09:01:07;;;;;;;3.40;1.60;;;45.70;17.60;;;;;;5072576;28;20424;-63
2022/09/22 09:03:53;;;;;;;2.17;1.23;;;45.60;18.20;;;;;;5072080;28;20462;-64
2022/09/22 09:06:28;;;;;;;2.20;1.33;;;46.20;17.50;;;;;;5072507;28;20429;-63
2022/09/22 09:09:10;;;;;;;2.30;1.40;;;46.60;17.40;;;;;;5072448;28;20478;-64
2022/09/22 09:12:05;;;;;;;2.60;1.70;;;47.20;17.30;;;;;;5072469;28;20972;-63
2022/09/22 09:14:55;;;;;;;2.70;1.33;;;47.80;17.20;;;;;;5072343;28;20510;-63
2022/09/22 09:17:26;;;;;;;3.70;1.37;;;48.30;16.90;;;;;;5063158;28;21013;-63
2022/09/22 09:19:57;;;;;;;2.60;1.50;;;48.30;16.70;;;;;;5072241;28;20440;-64
2022/09/22 09:22:28;;;;;;;3.40;1.50;;;48.70;16.60;;;;;;5072455;28;20850;-63
2022/09/22 09:25:00;;;;;;;4.13;1.67;;;49.10;15.80;;;;;;5073035;28;20468;-64
2022/09/22 09:27:30;;;;;;;2.33;1.30;;;49.40;15.60;;;;;;5075941;28;20474;-64
2022/09/22 09:30:05;;;;;;;2.37;1.37;;;49.70;15.30;;;;;;5075871;28;20444;-64
2022/09/22 09:32:42;;;;;;;3.40;1.80;;;50.10;15.30;;;;;;5075830;28;20447;-67
2022/09/22 09:35:14;;;;;;;1.93;1.20;;;50.20;15.00;;;;;;5076005;28;20518;-65
2022/09/22 09:37:44;;;;;;;2.90;1.27;;;50.60;14.70;;;;;;5075432;28;20479;-65
2022/09/22 09:40:16;;;;;;;3.33;1.93;;;51.10;14.20;;;;;;5075769;28;20791;-65
2022/09/22 09:42:46;;;;;;;2.70;1.53;;;51.20;14.30;;;;;;5075793;28;20777;-64
2022/09/22 09:45:15;;;;;;;3.20;1.90;;;51.20;14.10;;;;;;5075415;28;20440;-65
2022/09/22 09:47:54;;;;;;;4.10;1.60;;;51.40;14.00;;;;;;5075062;28;20503;-65
2022/09/22 09:50:22;;;;;;;2.50;1.50;;;51.60;14.00;;;;;;5075682;28;20537;-64
2022/09/22 09:52:51;;;;;;;2.63;1.60;;;52.00;13.70;;;;;;5075252;28;20860;-65
2022/09/22 09:55:24;;;;;;;2.10;1.33;;;52.30;14.00;;;;;;5075184;28;20442;-65
2022/09/22 09:58:09;;;;;;;2.57;1.73;;;52.30;13.60;;;;;;5075524;28;20490;-64
2022/09/22 10:00:54;;;;;;;2.90;1.70;;;51.60;13.60;;;;;;5075581;28;20468;-64
2022/09/22 10:03:27;;;;;;;3.17;1.70;;;51.60;13.40;;;;;;5075401;28;20443;-65
2022/09/22 10:05:59;;;;;;;2.63;1.50;;;51.50;13.60;;;;;;5075338;28;20519;-64
2022/09/22 10:08:30;;;;;;;3.10;1.40;;;51.90;14.10;;;;;;5075076;28;20494;-64
2022/09/22 10:11:00;;;;;;;3.27;1.60;;;52.10;13.40;;;;;;5074739;28;20447;-64
2022/09/22 10:13:33;;;;;;;3.17;1.83;;;51.50;13.60;;;;;;5074808;28;20432;-64
2022/09/22 10:16:22;;;;;;;3.43;1.70;;;51.80;14.10;;;;;;5074929;28;20524;-63
2022/09/22 10:18:51;;;;;;;2.60;1.57;;;52.50;13.50;;;;;;5070605;28;20515;-64
2022/09/22 10:21:20;;;;;;;2.83;1.20;;;52.80;13.40;;;;;;5074641;28;20527;-64
2022/09/22 10:23:49;;;;;;;1.90;1.10;;;53.20;13.80;;;;;;5074681;28;20923;-63
2022/09/22 10:26:25;;;;;;;2.30;1.20;;;53.50;13.20;;;;;;5074532;28;20476;-63
2022/09/22 10:29:14;;;;;;;5.93;1.63;;;53.80;13.10;;;;;;5074844;28;20489;-63
2022/09/22 10:31:42;;;;;;;2.30;1.17;;;54.00;13.00;;;;;;5074834;28;20915;-63
2022/09/22 10:34:30;;;;;;;2.37;1.10;;;54.20;12.80;;;;;;5074701;28;20440;-63
2022/09/22 10:36:58;;;;;;;2.87;1.23;;;54.20;13.10;;;;;;5074054;28;20435;-63
2022/09/22 10:39:35;;;;;;;2.00;1.00;;;54.20;13.30;;;;;;5074225;28;20674;-63
2022/09/22 10:42:06;;;;;;;2.00;0.80;;;54.20;12.30;;;;;;5073992;28;20447;-63
2022/09/22 10:44:34;;;;;;;2.70;0.93;;;53.90;11.50;;;;;;5074420;28;20899;-63
2022/09/22 10:47:28;;;;;;;2.93;0.97;;;53.80;11.50;;;;;;5074018;28;20436;-63
2022/09/22 10:50:21;;;;;;;2.07;0.90;;;53.80;12.10;;;;;;5074041;28;20435;-63
2022/09/22 10:52:55;;;;;;;2.00;0.90;;;53.80;11.30;;;;;;5068944;28;20448;-63
2022/09/22 10:55:30;;;;;;;2.90;1.23;;;53.20;12.00;;;;;;5074271;28;20440;-63
2022/09/22 10:58:27;;;;;;;2.20;1.00;;;53.10;12.00;;;;;;5073909;28;20474;-63
2022/09/22 11:01:08;;;;;;;2.00;1.00;;;52.90;12.40;;;;;;5073773;28;20475;-63
2022/09/22 11:03:54;;;;;;;2.00;1.00;;;53.20;11.80;;;;;;5073988;28;20439;-63
2022/09/22 11:12:39;;;;;;;1.90;1.23;;;53.20;12.50;;;;;;5073823;28;20439;-63
2022/09/22 11:15:35;;;;;;;2.63;1.13;;;53.50;12.30;;;;;;5073829;28;20493;-63
2022/09/22 11:18:19;;;;;;;1.87;0.80;;;53.60;12.40;;;;;;5073722;28;20531;-63
2022/09/22 11:20:52;;;;;;;2.10;0.97;;;53.90;11.70;;;;;;5073811;28;20511;-63
2022/09/22 11:23:49;;;;;;;1.67;0.80;;;53.80;11.70;;;;;;5073466;28;20507;-63
2022/09/22 11:26:44;;;;;;;2.20;0.90;;;53.80;11.00;;;;;;5073441;28;20440;-63
2022/09/22 11:29:56;;;;;;;1.93;0.90;;;53.70;10.90;;;;;;5071684;28;20475;-63
2022/09/22 11:32:44;;;;;;;1.90;0.90;;;53.20;11.10;;;;;;5037050;28;20484;-63
2022/09/22 11:35:28;;;;;;;2.30;0.83;;;53.40;10.80;;;;;;5073507;28;20442;-64
2022/09/22 11:38:09;;;;;;;3.40;0.80;;;53.40;11.50;;;;;;5073457;28;20957;-63
2022/09/22 11:40:53;;;;;;;2.10;0.90;;;53.50;11.80;;;;;;5073391;28;20957;-63
2022/09/22 11:43:42;;;;;;;2.23;0.97;;;53.60;11.80;;;;;;5073604;28;20483;-63
2022/09/22 11:46:18;;;;;;;1.90;0.90;;;53.80;11.30;;;;;;5073437;28;20493;-64
2022/09/22 11:49:03;;;;;;;1.87;0.80;;;53.80;11.40;;;;;;5072410;28;20505;-63
2022/09/22 11:52:02;;;;;;;1.80;0.80;;;53.30;10.10;;;;;;5073056;28;20531;-63
2022/09/22 11:54:54;;;;;;;1.80;0.77;;;52.90;11.10;;;;;;5073220;28;20910;-63
2022/09/22 11:57:25;;;;;;;1.70;0.77;;;52.90;11.10;;;;;;5072930;28;20436;-63
2022/09/22 11:59:57;;;;;;;1.50;0.60;;;52.70;10.40;;;;;;5073142;28;20480;-63
2022/09/22 12:02:29;;;;;;;1.60;0.70;;;52.50;10.60;;;;;;5073041;28;20440;-63
2022/09/22 12:04:59;;;;;;;1.90;0.83;;;52.20;10.40;;;;;;5073161;28;20436;-67
2022/09/22 12:07:31;;;;;;;2.70;0.90;;;51.90;11.10;;;;;;5072427;28;20520;-63
2022/09/22 12:10:01;;;;;;;1.70;0.80;;;51.90;10.10;;;;;;5073077;28;20444;-62
2022/09/22 12:12:31;;;;;;;1.70;0.73;;;51.60;10.20;;;;;;5072927;28;20844;-63
2022/09/22 12:15:06;;;;;;;3.13;0.80;;;51.60;10.00;;;;;;5072752;28;20535;-63
2022/09/22 12:17:40;;;;;;;1.90;0.90;;;51.60;10.20;;;;;;5072738;28;20427;-62
2022/09/22 12:20:24;;;;;;;2.57;0.90;;;51.40;10.40;;;;;;5072918;28;20574;-62
2022/09/22 12:23:27;;;;;;;3.30;0.83;;;50.90;10.50;;;;;;5072711;28;20526;-63
2022/09/22 12:25:56;;;;;;;1.87;0.87;;;50.70;10.90;;;;;;5072881;28;20435;-62
2022/09/22 12:28:25;;;;;;;1.87;0.80;;;50.30;10.30;;;;;;5072648;28;20848;-63
2022/09/22 12:30:57;;;;;;;3.33;0.80;;;50.20;10.60;;;;;;5072747;28;20466;-62
2022/09/22 12:33:25;;;;;;;2.00;0.80;;;49.80;10.40;;;;;;5072774;28;20930;-63
2022/09/22 12:35:55;;;;;;;1.80;0.73;;;49.30;10.30;;;;;;5072486;28;20467;-63
2022/09/22 12:38:23;;;;;;;1.90;0.70;;;48.50;11.00;;;;;;5072382;28;20559;-64
2022/09/22 12:40:53;;;;;;;1.97;0.90;;;47.80;10.80;;;;;;5072389;28;20447;-63
2022/09/22 12:43:23;;;;;;;2.80;0.70;;;47.40;11.30;;;;;;5072274;28;20475;-62
2022/09/22 12:45:52;;;;;;;2.13;0.80;;;46.90;11.90;;;;;;5072314;28;20527;-63
2022/09/22 12:48:23;;;;;;;3.33;1.00;;;46.40;12.00;;;;;;5072418;28;20555;-63
2022/09/22 12:50:52;;;;;;;1.90;0.80;;;45.40;12.40;;;;;;5072293;28;20971;-62
2022/09/22 12:53:28;;;;;;;3.40;1.67;;;44.00;12.50;;;;;;5072394;28;20777;-63
2022/09/22 12:55:56;;;;;;;2.50;0.87;;;42.70;13.70;;;;;;5072370;28;20522;-62
2022/09/22 12:58:42;;;;;;;1.80;0.80;;;41.70;15.20;;;;;;5072403;28;20530;-62
2022/09/22 13:01:33;;;;;;;2.00;1.10;;;40.80;15.00;;;;;;5075977;28;20858;-64
2022/09/22 13:04:18;;;;;;;2.23;0.90;;;39.80;15.70;;;;;;5075864;28;20444;-62
2022/09/22 13:06:59;;;;;;;1.80;0.90;;;38.60;16.70;;;;;;5076229;28;20466;-63
2022/09/22 13:09:30;;;;;;;2.47;1.03;;;37.10;17.40;;;;;;5076167;28;20436;-62
2022/09/22 13:12:22;;;;;;;4.00;1.10;;;35.50;18.10;;;;;;5075762;28;20442;-62
2022/09/22 13:15:10;;;;;;;1.97;0.80;;;33.70;18.40;;;;;;5075969;28;20437;-62
2022/09/22 13:17:41;;;;;;;1.80;0.80;;;32.30;19.70;;;;;;5076299;28;20435;-62
2022/09/22 13:20:18;;;;;;;7.20;1.10;;;31.10;20.40;;;;;;5075841;28;20483;-62
2022/09/22 13:22:45;;;;;;;1.80;0.80;;;30.20;21.30;;;;;;5076122;28;20470;-63
2022/09/22 13:25:31;;;;;;;2.87;1.30;;;28.80;23.40;;;;;;5075332;28;20531;-62
2022/09/22 13:28:13;;;;;;;4.53;1.20;;;27.90;24.40;;;;;;5075785;28;20435;-61
2022/09/22 13:30:42;;;;;;;3.10;1.23;;;27.00;24.40;;;;;;5075681;28;20439;-62
2022/09/22 13:33:23;;;;;;;1.90;0.80;;;26.40;25.70;;;;;;5075780;28;20964;-62
2022/09/22 13:36:05;;;;;;;2.37;0.80;;;25.60;26.10;;;;;;5075903;28;20448;-61
2022/09/22 13:38:37;;;;;;;2.73;1.00;;;25.20;26.40;;;;;;5075505;28;20444;-61
2022/09/22 13:41:12;;;;;;;2.00;0.90;;;24.80;27.10;;;;;;5075251;28;20462;-61
2022/09/22 13:43:43;;;;;;;3.10;1.07;;;24.30;28.20;;;;;;5075631;28;20463;-62
2022/09/22 13:46:19;;;;;;;2.10;0.83;;;24.00;28.70;;;;;;5075479;28;20487;-63
2022/09/22 13:48:46;;;;;;;2.20;0.83;;;23.70;29.20;;;;;;5075182;28;20491;-63
2022/09/22 13:51:15;;;;;;;2.17;1.13;;;23.60;30.00;;;;;;5075430;28;20471;-62
2022/09/22 13:53:50;;;;;;;2.80;1.27;;;23.40;29.20;;;;;;5075387;28;20787;-63
2022/09/22 13:56:20;;;;;;;2.10;1.00;;;23.30;29.60;;;;;;5075079;28;20489;-65
2022/09/22 13:58:50;;;;;;;3.47;0.83;;;23.10;29.00;;;;;;5075435;28;20503;-64
2022/09/22 14:01:19;;;;;;;3.60;1.13;;;22.90;30.10;;;;;;5075075;28;20479;-63
2022/09/22 14:03:46;;;;;;;3.47;1.20;;;22.80;29.70;;;;;;5075165;28;20558;-62
2022/09/22 14:06:17;;;;;;;3.80;1.30;;;22.60;29.50;;;;;;5074937;28;20526;-63
2022/09/22 14:08:47;;;;;;;1.70;0.80;;;22.40;29.80;;;;;;5075165;28;20448;-62
2022/09/22 14:11:16;;;;;;;3.03;1.10;;;22.30;29.60;;;;;;5074123;28;20478;-62
2022/09/22 14:13:57;;;;;;;1.80;0.90;;;22.10;31.00;;;;;;5074976;28;20443;-62
2022/09/22 14:16:28;;;;;;;2.30;1.30;;;22.00;31.00;;;;;;5074983;28;20450;-62
2022/09/22 14:19:01;;;;;;;2.40;1.20;;;21.80;30.20;;;;;;5074685;28;20856;-62
2022/09/22 14:21:28;;;;;;;2.27;1.23;;;21.60;31.40;;;;;;5074861;28;20440;-62
2022/09/22 14:23:56;;;;;;;3.53;1.40;;;21.40;31.60;;;;;;5074665;28;20475;-62
2022/09/22 14:26:32;;;;;;;3.17;1.40;;;21.20;32.00;;;;;;5074683;28;20476;-62
2022/09/22 14:29:12;;;;;;;7.40;1.57;;;21.00;33.20;;;;;;5074142;28;20467;-62
2022/09/22 14:31:40;;;;;;;2.40;1.50;;;20.80;32.80;;;;;;5074799;28;20485;-62
2022/09/22 14:34:09;;;;;;;2.50;1.10;;;20.60;33.90;;;;;;5074412;28;20467;-62